Time;durP1;ratioP1;P1;durP2;ratioP2;P2;SDS_P1;SDS_P2;PMS_P1;PMS_P2;Temp;Humidity;BMP_temperature;BMP_pressure;BME280_temperature;BME280_humidity;BME280_pressure;Samples;Min_cycle;Max_cycle;Signal;HPM_P1;HPM_P2
2021/01/02 00:00:25;;;;;;;4.35;3.27;;;;;;;11.54;48.11;100682.62;1815733;79;21197;-79
2021/01/02 00:03:33;;;;;;;5.17;3.95;;;;;;;11.55;48.14;100684.30;1815691;79;21173;-78
2021/01/02 00:06:10;;;;;;;5.67;3.98;;;;;;;11.53;48.24;100684.94;1816091;79;22028;-77
2021/01/02 00:08:39;;;;;;;4.60;4.10;;;;;;;11.52;48.38;100687.28;1815997;79;21160;-77
2021/01/02 00:11:19;;;;;;;5.37;4.25;;;;;;;11.53;48.40;100692.98;1815956;79;22327;-77
2021/01/02 00:13:58;;;;;;;4.08;3.67;;;;;;;11.52;48.31;100701.20;1815904;79;21152;-77
2021/01/02 00:17:04;;;;;;;4.22;3.67;;;;;;;11.53;48.25;100709.08;1816387;79;21152;-77
2021/01/02 00:19:50;;;;;;;5.22;3.85;;;;;;;11.53;48.25;100717.63;1816063;79;21179;-77
2021/01/02 00:22:29;;;;;;;4.92;3.90;;;;;;;11.52;48.35;100719.47;1814916;79;21207;-76
2021/01/02 00:24:57;;;;;;;3.95;3.55;;;;;;;11.51;48.35;100719.14;1816275;79;21430;-81
2021/01/02 00:27:44;;;;;;;4.05;3.55;;;;;;;11.53;48.30;100723.83;1816583;79;21148;-80
2021/01/02 00:30:39;;;;;;;4.55;3.45;;;;;;;11.53;48.29;100727.86;1816350;79;21279;-77
2021/01/02 00:34:05;;;;;;;4.30;3.90;;;;;;;11.56;48.03;100728.89;1765156;80;28020;-80
2021/01/02 00:36:48;;;;;;;3.52;3.15;;;;;;;11.60;47.95;100733.45;1736743;81;21240;-80
2021/01/02 00:39:32;;;;;;;3.98;2.98;;;;;;;11.61;47.77;100735.97;1736347;82;21482;-79
2021/01/02 00:42:01;;;;;;;2.90;2.60;;;;;;;11.58;47.72;100734.96;1712443;82;21560;-77
2021/01/02 00:44:32;;;;;;;3.17;2.87;;;;;;;11.55;47.51;100739.79;1708364;82;21612;-79
2021/01/02 00:47:00;;;;;;;3.65;2.65;;;;;;;11.53;47.58;100754.69;1684856;82;21173;-79
2021/01/02 00:49:29;;;;;;;2.80;2.50;;;;;;;11.51;47.56;100752.67;1708302;82;21499;-77
2021/01/02 00:52:06;;;;;;;4.12;2.67;;;;;;;11.51;47.62;100760.72;1685716;83;21223;-78
2021/01/02 00:54:42;;;;;;;3.35;2.60;;;;;;;11.51;47.69;100763.40;1706786;84;21438;-79
2021/01/02 00:57:15;;;;;;;4.08;2.90;;;;;;;11.50;47.73;100768.94;1707934;84;21129;-79
2021/01/02 00:59:58;;;;;;;3.12;2.58;;;;;;;11.48;47.66;100769.06;1732524;82;21180;-78
2021/01/02 01:03:06;;;;;;;3.22;2.45;;;;;;;11.47;47.59;100771.92;1735287;80;21220;-77
2021/01/02 01:05:37;;;;;;;2.08;1.87;;;;;;;11.45;47.42;100777.45;1736487;82;21391;-78
2021/01/02 01:08:06;;;;;;;2.98;2.35;;;;;;;11.45;47.32;100781.47;1736646;82;21184;-77
2021/01/02 01:10:35;;;;;;;2.47;2.10;;;;;;;11.46;47.35;100780.97;1736858;82;21129;-78
2021/01/02 01:13:11;;;;;;;2.47;2.10;;;;;;;11.45;47.34;100788.18;1736887;82;21212;-79
2021/01/02 01:15:39;;;;;;;3.30;2.12;;;;;;;11.45;47.25;100790.86;1737325;82;21112;-76
2021/01/02 01:18:33;;;;;;;2.67;2.15;;;;;;;11.44;47.21;100797.20;1715690;82;21807;-77
2021/01/02 01:21:02;;;;;;;2.50;2.00;;;;;;;11.45;47.09;100790.86;1723449;83;21186;-77
2021/01/02 01:23:49;;;;;;;2.55;2.05;;;;;;;11.44;47.09;100793.17;1750068;82;21206;-77
2021/01/02 01:27:04;;;;;;;2.40;2.00;;;;;;;11.46;47.05;100801.93;1749576;82;21191;-77
2021/01/02 01:29:57;;;;;;;2.40;2.20;;;;;;;11.45;47.00;100796.23;1723512;83;21176;-77
2021/01/02 01:32:28;;;;;;;4.25;2.10;;;;;;;11.44;47.05;100807.93;1749641;81;21817;-77
2021/01/02 01:35:03;;;;;;;3.58;2.00;;;;;;;11.43;47.09;100811.11;1739784;81;21827;-78
2021/01/02 01:37:33;;;;;;;13.75;3.40;;;;;;;11.43;47.10;100807.59;1718387;82;21213;-80
2021/01/02 01:40:01;;;;;;;6.03;2.27;;;;;;;11.41;47.04;100809.60;1724856;82;21185;-77
2021/01/02 01:42:43;;;;;;;2.98;2.27;;;;;;;11.42;47.01;100812.63;1722338;82;21229;-77
2021/01/02 01:45:40;;;;;;;6.22;2.55;;;;;;;11.42;47.07;100813.96;1706962;83;21403;-78
2021/01/02 01:48:20;;;;;;;2.55;2.35;;;;;;;11.43;46.98;100825.03;1712064;83;21488;-78
2021/01/02 01:51:31;;;;;;;2.45;2.05;;;;;;;11.39;46.89;100823.15;1710059;83;21212;-78
2021/01/02 01:54:01;;;;;;;2.70;2.42;;;;;;;11.37;46.93;100822.97;1698798;83;21216;-79
2021/01/02 01:56:42;;;;;;;2.42;2.22;;;;;;;11.37;46.94;100829.68;1677219;84;21217;-78
2021/01/02 01:59:24;;;;;;;3.72;2.80;;;;;;;11.37;47.00;100831.02;1733066;81;21803;-78
2021/01/02 02:01:56;;;;;;;2.95;2.15;;;;;;;11.37;47.07;100839.91;1713288;82;21380;-77
2021/01/02 02:05:00;;;;;;;2.30;2.10;;;;;;;11.38;47.06;100838.91;1719410;82;21214;-79
2021/01/02 02:08:00;;;;;;;3.15;2.67;;;;;;;11.37;47.11;100841.25;1730365;81;21173;-76
2021/01/02 02:10:48;;;;;;;4.78;3.47;;;;;;;11.38;47.21;100847.45;1719229;83;21208;-79
2021/01/02 02:13:32;;;;;;;2.95;2.65;;;;;;;11.39;47.26;100847.79;1693276;84;21236;-77
2021/01/02 02:16:00;;;;;;;3.40;2.55;;;;;;;11.39;47.21;100858.52;1719253;83;21202;-80
2021/01/02 02:18:29;;;;;;;3.20;2.47;;;;;;;11.37;47.21;100869.91;1719537;83;21384;-80
2021/01/02 02:20:59;;;;;;;2.58;2.37;;;;;;;11.35;47.30;100871.88;1719586;83;21465;-79
2021/01/02 02:23:45;;;;;;;2.98;2.25;;;;;;;11.35;47.38;100871.88;1719786;83;21441;-78
2021/01/02 02:26:30;;;;;;;3.40;2.33;;;;;;;11.35;47.19;100872.72;1719519;83;21370;-79
2021/01/02 02:29:12;;;;;;;3.15;2.55;;;;;;;11.34;47.18;100880.43;1719862;82;21193;-77
2021/01/02 02:31:43;;;;;;;2.95;2.65;;;;;;;11.33;47.23;100884.62;1744982;81;21149;-79
2021/01/02 02:34:11;;;;;;;2.83;2.52;;;;;;;11.36;47.23;100884.32;1721021;82;21196;-76
2021/01/02 02:36:39;;;;;;;2.98;2.67;;;;;;;11.38;47.24;100880.98;1724761;82;21145;-76
2021/01/02 02:39:10;;;;;;;3.02;2.45;;;;;;;11.39;47.25;100890.20;1724016;82;21446;-78
2021/01/02 02:41:43;;;;;;;3.25;2.70;;;;;;;11.41;47.27;100890.91;1729435;82;21209;-77
2021/01/02 02:44:11;;;;;;;3.22;2.67;;;;;;;11.42;47.16;100894.43;1724003;82;21181;-77
2021/01/02 02:46:43;;;;;;;3.35;2.90;;;;;;;11.42;47.12;100897.11;1727901;82;21227;-81
2021/01/02 02:49:14;;;;;;;2.83;2.50;;;;;;;11.42;47.21;100901.13;1723739;82;21181;-77
2021/01/02 02:51:47;;;;;;;2.87;2.62;;;;;;;11.42;47.22;100901.13;1729256;82;21352;-78
2021/01/02 02:54:15;;;;;;;4.00;3.42;;;;;;;11.42;47.27;100910.02;1733423;82;21197;-77
2021/01/02 02:56:43;;;;;;;8.40;6.15;;;;;;;11.43;47.24;100916.23;1733463;82;21181;-78
2021/01/02 02:59:11;;;;;;;7.62;3.12;;;;;;;11.44;47.37;100916.56;1733676;82;21196;-80
2021/01/02 03:01:39;;;;;;;3.55;2.98;;;;;;;11.45;47.34;100920.95;1725324;82;21205;-81
2021/01/02 03:04:07;;;;;;;4.12;3.00;;;;;;;11.45;47.34;100923.64;1724686;82;21830;-80
2021/01/02 03:06:35;;;;;;;3.25;2.72;;;;;;;11.45;47.40;100921.46;1723832;82;21152;-81
2021/01/02 03:09:03;;;;;;;3.10;2.80;;;;;;;11.45;47.39;100928.16;1723777;82;21666;-76
2021/01/02 03:11:31;;;;;;;3.37;2.50;;;;;;;11.45;47.41;100929.51;1725089;82;21538;-80
2021/01/02 03:13:59;;;;;;;5.25;3.65;;;;;;;11.44;47.38;100932.66;1696355;82;21202;-80
2021/01/02 03:16:28;;;;;;;14.10;8.28;;;;;;;11.44;47.35;100936.69;1690377;84;21278;-80
2021/01/02 03:18:55;;;;;;;5.12;3.55;;;;;;;11.44;47.40;100936.69;1725965;81;21380;-80
2021/01/02 03:21:23;;;;;;;4.45;2.80;;;;;;;11.42;47.43;100933.32;1713037;82;21150;-75
2021/01/02 03:23:51;;;;;;;3.52;2.58;;;;;;;11.43;47.32;100937.69;1683721;84;21193;-82
2021/01/02 03:26:19;;;;;;;7.50;2.80;;;;;;;11.40;47.28;100941.53;1712024;81;21620;-79
2021/01/02 03:28:53;;;;;;;4.15;3.00;;;;;;;11.40;47.23;100946.05;1744008;81;21183;-82
2021/01/02 03:31:20;;;;;;;3.72;3.17;;;;;;;11.39;47.20;100950.55;1719170;83;21182;-76
2021/01/02 03:33:48;;;;;;;3.62;3.10;;;;;;;11.39;47.15;100953.23;1724915;82;21201;-80
2021/01/02 03:36:17;;;;;;;5.90;3.47;;;;;;;11.40;47.11;100956.78;1726307;82;21181;-82
2021/01/02 03:38:55;;;;;;;5.45;3.20;;;;;;;11.39;47.04;100960.44;1748632;82;21082;-80
2021/01/02 03:41:24;;;;;;;5.60;3.85;;;;;;;11.39;47.11;100959.09;1729306;82;22693;-79
2021/01/02 03:43:52;;;;;;;4.60;3.80;;;;;;;11.39;47.06;100967.14;1723174;83;21693;-79
2021/01/02 03:46:25;;;;;;;4.75;3.60;;;;;;;11.36;46.97;100968.80;1749395;82;21527;-78
2021/01/02 03:48:54;;;;;;;5.05;3.42;;;;;;;11.34;46.91;100972.95;1720990;82;21721;-76
2021/01/02 03:51:26;;;;;;;3.72;3.05;;;;;;;11.33;46.67;100969.09;1749157;82;21682;-81
2021/01/02 03:53:54;;;;;;;3.92;2.90;;;;;;;11.31;46.25;100981.33;1749143;82;22369;-78
2021/01/02 03:56:22;;;;;;;3.58;3.05;;;;;;;11.28;45.82;100976.25;1749271;82;21215;-80
2021/01/02 03:58:50;;;;;;;5.15;3.33;;;;;;;11.25;45.41;100975.70;1749311;81;21175;-77
2021/01/02 04:01:18;;;;;;;4.05;3.20;;;;;;;11.24;45.24;100976.20;1749282;82;21175;-78
2021/01/02 04:03:45;;;;;;;9.38;3.02;;;;;;;11.23;45.04;100980.38;1749634;82;21218;-77
2021/01/02 04:06:13;;;;;;;6.42;3.50;;;;;;;11.21;45.10;100983.20;1749452;82;22041;-77
2021/01/02 04:08:41;;;;;;;3.92;3.10;;;;;;;11.20;44.90;100995.42;1749356;82;21163;-80
2021/01/02 04:11:09;;;;;;;3.02;2.72;;;;;;;11.15;44.92;101000.73;1749387;82;21167;-80
2021/01/02 04:13:37;;;;;;;5.58;3.70;;;;;;;11.15;44.93;101003.41;1749900;82;21443;-80
2021/01/02 04:16:06;;;;;;;3.42;2.83;;;;;;;11.12;44.93;101005.04;1750733;82;21265;-81
2021/01/02 04:18:34;;;;;;;5.50;3.72;;;;;;;11.10;44.86;101007.03;1749349;82;21335;-77
2021/01/02 04:21:02;;;;;;;6.00;4.00;;;;;;;11.07;44.92;101010.00;1749026;82;21194;-79
2021/01/02 04:23:30;;;;;;;5.08;4.05;;;;;;;11.06;44.90;101019.05;1749059;82;21194;-80
2021/01/02 04:25:58;;;;;;;6.47;4.12;;;;;;;11.03;44.90;101022.51;1748937;82;21017;-76
2021/01/02 04:28:26;;;;;;;5.58;4.35;;;;;;;11.01;44.86;101028.03;1748845;82;21210;-78
2021/01/02 04:30:54;;;;;;;6.42;4.62;;;;;;;10.99;44.88;101041.22;1748827;82;21223;-80
2021/01/02 04:33:22;;;;;;;6.00;4.90;;;;;;;10.95;44.98;101042.03;1748571;82;21208;-80
2021/01/02 04:35:50;;;;;;;7.97;4.78;;;;;;;10.90;45.02;101043.81;1748623;82;21567;-78
2021/01/02 04:38:18;;;;;;;9.40;4.97;;;;;;;10.89;45.06;101043.94;1748383;82;21366;-77
2021/01/02 04:40:46;;;;;;;7.15;5.30;;;;;;;10.85;45.09;101047.39;1748630;82;21190;-78
2021/01/02 04:43:13;;;;;;;13.03;6.30;;;;;;;10.83;45.25;101058.77;1749333;82;21390;-77
2021/01/02 04:45:41;;;;;;;9.63;5.37;;;;;;;10.82;45.29;101058.92;1749430;82;21444;-77
2021/01/02 04:48:09;;;;;;;13.80;5.58;;;;;;;10.80;45.37;101064.41;1749189;82;21470;-78
2021/01/02 04:50:37;;;;;;;13.25;6.90;;;;;;;10.80;45.54;101064.91;1710219;82;21189;-78
2021/01/02 04:53:05;;;;;;;12.50;6.65;;;;;;;10.80;45.71;101071.11;1741033;82;21192;-80
2021/01/02 04:55:33;;;;;;;13.93;6.50;;;;;;;10.79;45.73;101075.28;1749522;82;21724;-78
2021/01/02 04:58:05;;;;;;;12.33;7.28;;;;;;;10.77;45.80;101087.99;1720794;82;21229;-79
2021/01/02 05:00:36;;;;;;;11.60;7.70;;;;;;;10.78;45.86;101087.84;1712926;83;21205;-78
2021/01/02 05:03:04;;;;;;;11.65;7.40;;;;;;;10.76;46.00;101087.62;1701363;84;21200;-80
2021/01/02 05:05:32;;;;;;;11.70;7.37;;;;;;;10.77;46.09;101090.67;1693779;84;21572;-79
2021/01/02 05:08:00;;;;;;;12.65;7.55;;;;;;;10.75;46.14;101094.81;1693528;84;21884;-81
2021/01/02 05:10:28;;;;;;;13.38;7.42;;;;;;;10.74;46.25;101098.98;1693392;84;21221;-77
2021/01/02 05:13:12;;;;;;;13.88;7.85;;;;;;;10.69;46.35;101103.44;1693052;84;21193;-76
2021/01/02 05:15:40;;;;;;;15.70;7.45;;;;;;;10.63;46.45;101113.39;1693472;84;21153;-77
2021/01/02 05:18:08;;;;;;;13.05;7.37;;;;;;;10.60;46.58;101122.55;1694094;84;21193;-78
2021/01/02 05:20:36;;;;;;;12.75;7.20;;;;;;;10.59;46.59;101126.22;1693835;84;21396;-78
2021/01/02 05:23:08;;;;;;;10.90;6.58;;;;;;;10.57;46.64;101126.84;1693944;84;21224;-78
2021/01/02 05:25:37;;;;;;;9.48;7.10;;;;;;;10.57;46.60;101125.50;1694720;84;21137;-79
2021/01/02 05:28:05;;;;;;;11.03;7.35;;;;;;;10.54;46.57;101127.14;1701145;83;21597;-78
2021/01/02 05:30:33;;;;;;;13.75;7.50;;;;;;;10.54;46.60;101133.84;1689325;84;21137;-78
2021/01/02 05:33:13;;;;;;;11.45;8.20;;;;;;;10.54;46.60;101143.22;1693908;84;21387;-78
2021/01/02 05:35:46;;;;;;;16.07;10.20;;;;;;;10.55;46.48;101140.88;1694478;84;21577;-78
2021/01/02 05:38:21;;;;;;;16.62;10.88;;;;;;;10.49;46.46;101142.80;1694424;84;21137;-79
2021/01/02 05:40:54;;;;;;;15.23;8.60;;;;;;;10.44;46.50;101146.36;1693586;84;21784;-79
2021/01/02 05:43:24;;;;;;;14.50;8.58;;;;;;;10.41;46.57;101156.04;1694092;84;21221;-79
2021/01/02 05:45:52;;;;;;;16.32;8.53;;;;;;;10.39;46.57;101160.67;1694236;84;21306;-79
2021/01/02 05:48:26;;;;;;;13.28;8.88;;;;;;;10.36;46.60;101167.17;1694423;84;21220;-81
2021/01/02 05:50:59;;;;;;;17.35;10.68;;;;;;;10.36;46.66;101170.34;1694444;84;21174;-77
2021/01/02 05:53:35;;;;;;;16.27;11.18;;;;;;;10.37;46.61;101172.03;1694505;84;21236;-78
2021/01/02 05:56:10;;;;;;;20.40;11.35;;;;;;;10.33;46.61;101176.81;1694576;84;21182;-77
2021/01/02 05:58:42;;;;;;;20.88;12.98;;;;;;;10.30;46.65;101187.79;1694861;84;21380;-78
2021/01/02 06:01:19;;;;;;;20.00;13.90;;;;;;;10.28;46.71;101185.76;1694655;84;21205;-79
2021/01/02 06:03:49;;;;;;;22.42;15.30;;;;;;;10.26;46.74;101186.87;1694708;84;21134;-80
2021/01/02 06:06:18;;;;;;;26.73;17.12;;;;;;;10.24;46.76;101196.84;1694732;84;21284;-81
2021/01/02 06:08:49;;;;;;;30.88;20.37;;;;;;;10.21;46.74;101203.81;1708592;82;21478;-81
2021/01/02 06:11:21;;;;;;;25.85;18.12;;;;;;;10.17;46.81;101208.58;1745672;81;21392;-78
2021/01/02 06:13:51;;;;;;;24.90;16.73;;;;;;;10.14;46.88;101215.08;1706731;83;21740;-80
2021/01/02 06:16:20;;;;;;;24.15;16.80;;;;;;;10.12;46.92;101215.69;1721544;82;21186;-79
2021/01/02 06:18:49;;;;;;;21.23;14.00;;;;;;;10.10;46.96;101216.33;1720871;82;21250;-80
2021/01/02 06:21:18;;;;;;;21.05;13.98;;;;;;;10.09;46.96;101218.66;1716801;82;21184;-79
2021/01/02 06:23:47;;;;;;;23.12;13.05;;;;;;;10.08;47.01;101226.34;1750086;81;21347;-78
2021/01/02 06:26:16;;;;;;;21.57;12.68;;;;;;;10.08;47.00;101230.36;1751993;81;21434;-81
2021/01/02 06:28:45;;;;;;;18.87;11.28;;;;;;;10.08;47.04;101231.69;1752213;81;21162;-81
2021/01/02 06:31:14;;;;;;;15.35;9.55;;;;;;;10.09;47.02;101240.07;1752235;81;21185;-81
2021/01/02 06:33:48;;;;;;;17.35;10.15;;;;;;;10.11;47.03;101243.45;1753737;81;21193;-78
2021/01/02 06:36:35;;;;;;;15.45;9.25;;;;;;;10.09;46.99;101249.44;1730348;81;21386;-80
2021/01/02 06:39:23;;;;;;;12.28;9.38;;;;;;;10.11;46.96;101251.97;1721932;83;21129;-79
2021/01/02 06:41:53;;;;;;;11.70;8.20;;;;;;;10.08;47.07;101253.57;1722171;81;21372;-79
2021/01/02 06:44:42;;;;;;;19.05;10.45;;;;;;;10.07;47.04;101255.41;1720846;83;21169;-78
2021/01/02 06:47:18;;;;;;;12.35;8.50;;;;;;;10.09;47.08;101256.63;1721551;83;21208;-78
2021/01/02 06:49:46;;;;;;;14.35;8.15;;;;;;;10.09;46.99;101260.64;1721438;83;21350;-81
2021/01/02 06:52:33;;;;;;;12.98;7.97;;;;;;;10.09;47.00;101264.16;1721480;83;21233;-79
2021/01/02 06:55:21;;;;;;;11.48;7.85;;;;;;;10.09;46.96;101272.20;1735093;81;21182;-81
2021/01/02 06:57:50;;;;;;;;;;;;;;;10.09;47.01;101280.22;1745672;81;21201;-80
2021/01/02 07:00:25;;;;;;;12.78;7.45;;;;;;;10.10;47.05;101281.91;1752069;81;21162;-81
2021/01/02 07:02:56;;;;;;;10.35;7.60;;;;;;;10.11;47.05;101284.09;1697952;83;21447;-80
2021/01/02 07:05:49;;;;;;;10.15;6.55;;;;;;;10.16;47.04;101287.21;1693699;84;21222;-81
2021/01/02 07:08:45;;;;;;;12.70;8.65;;;;;;;10.23;47.01;101283.02;1700788;83;21185;-79
2021/01/02 07:11:40;;;;;;;13.58;9.25;;;;;;;10.36;46.92;101288.17;1706789;83;21829;-78
2021/01/02 07:14:16;;;;;;;10.88;7.72;;;;;;;10.51;46.79;101292.15;1730182;82;21205;-79
2021/01/02 07:16:57;;;;;;;14.80;7.83;;;;;;;10.65;46.68;101298.95;1716497;83;21166;-80
2021/01/02 07:19:39;;;;;;;12.10;7.90;;;;;;;10.77;46.49;101301.87;1727361;82;21212;-78
2021/01/02 07:22:21;;;;;;;13.03;6.85;;;;;;;10.90;46.21;101305.59;1690311;84;21226;-81
2021/01/02 07:25:01;;;;;;;11.38;6.92;;;;;;;10.98;45.97;101312.95;1667583;84;21249;-78
2021/01/02 07:27:32;;;;;;;11.05;6.92;;;;;;;11.01;45.82;101307.32;1716162;83;21529;-78
2021/01/02 07:30:12;;;;;;;10.85;6.95;;;;;;;11.02;45.67;101310.34;1704777;83;21210;-78
2021/01/02 07:32:43;;;;;;;10.78;6.62;;;;;;;11.03;45.51;101306.67;1707026;83;21578;-79
2021/01/02 07:35:15;;;;;;;12.80;7.30;;;;;;;11.03;45.20;101310.20;1726509;80;21399;-79
2021/01/02 07:37:45;;;;;;;10.78;7.35;;;;;;;11.02;45.19;101315.22;1718436;83;21134;-79
2021/01/02 07:40:17;;;;;;;11.88;6.92;;;;;;;11.01;45.24;101320.23;1718811;83;21119;-79
2021/01/02 07:42:50;;;;;;;13.90;7.22;;;;;;;11.01;45.25;101329.61;1718325;83;22210;-80
2021/01/02 07:45:23;;;;;;;11.12;6.47;;;;;;;11.00;45.32;101328.42;1718864;83;21401;-80
2021/01/02 07:47:56;;;;;;;11.60;6.85;;;;;;;11.03;45.32;101335.66;1717865;83;21149;-80
2021/01/02 07:50:27;;;;;;;11.10;6.83;;;;;;;11.07;45.18;101341.11;1717704;83;21185;-81
2021/01/02 07:52:59;;;;;;;9.95;6.08;;;;;;;11.11;45.17;101343.86;1718021;83;21232;-78
2021/01/02 07:55:33;;;;;;;8.13;6.22;;;;;;;11.13;45.10;101345.93;1718132;83;21370;-78
2021/01/02 07:58:03;;;;;;;9.73;6.62;;;;;;;11.14;45.03;101348.95;1718112;83;21205;-79
2021/01/02 08:00:30;;;;;;;12.98;6.47;;;;;;;11.10;45.07;101356.08;1717798;83;21484;-79
2021/01/02 08:03:05;;;;;;;8.88;6.15;;;;;;;11.09;45.13;101353.89;1734806;81;21205;-79
2021/01/02 08:05:33;;;;;;;10.72;6.62;;;;;;;11.15;45.14;101352.48;1754344;81;21202;-78
2021/01/02 08:08:02;;;;;;;11.00;6.35;;;;;;;11.22;44.97;101351.41;1759379;81;21359;-77
2021/01/02 08:10:31;;;;;;;11.57;6.03;;;;;;;11.19;45.07;101357.92;1730427;82;21157;-77
2021/01/02 08:15:37;;;;;;;9.23;6.72;;;;;;;11.25;44.98;101360.03;1813254;79;22028;-78
2021/01/02 08:18:09;;;;;;;12.47;7.42;;;;;;;11.30;44.91;101352.91;1773182;79;21535;-78
2021/01/02 08:20:37;;;;;;;15.05;8.45;;;;;;;11.38;44.76;101363.78;1784255;80;21192;-76
2021/01/02 08:23:08;;;;;;;14.68;7.75;;;;;;;11.45;44.73;101364.08;1811264;78;21212;-79
2021/01/02 08:25:36;;;;;;;13.32;7.97;;;;;;;11.47;44.69;101368.30;1796272;79;21752;-79
2021/01/02 08:28:04;;;;;;;9.50;6.60;;;;;;;11.49;44.58;101373.51;1763359;80;21218;-79
2021/01/02 08:30:32;;;;;;;9.18;6.28;;;;;;;11.51;44.50;101368.87;1763218;79;21217;-78
2021/01/02 08:33:02;;;;;;;11.63;6.10;;;;;;;11.55;44.68;101363.08;1742375;81;21717;-78
2021/01/02 08:35:38;;;;;;;7.75;5.53;;;;;;;11.61;44.61;101365.17;1767197;80;21192;-77
2021/01/02 08:38:09;;;;;;;8.50;5.60;;;;;;;11.71;44.44;101368.34;1760388;81;21161;-80
2021/01/02 08:40:38;;;;;;;7.45;4.53;;;;;;;11.78;44.20;101367.64;1760881;81;21214;-78
2021/01/02 08:43:06;;;;;;;6.58;4.53;;;;;;;11.80;44.06;101375.54;1761986;81;21639;-78
2021/01/02 08:45:40;;;;;;;7.35;4.75;;;;;;;11.87;43.74;101370.83;1760961;81;21813;-79
2021/01/02 08:48:15;;;;;;;8.28;4.72;;;;;;;11.89;43.63;101372.02;1767264;80;22129;-79
2021/01/02 08:50:43;;;;;;;6.58;4.70;;;;;;;11.88;43.71;101365.80;1792421;80;21168;-80
2021/01/02 08:53:28;;;;;;;7.20;4.55;;;;;;;11.91;43.59;101374.08;1792178;80;21696;-77
2021/01/02 08:55:56;;;;;;;7.42;4.85;;;;;;;11.93;43.54;101368.91;1769790;80;21209;-79
2021/01/02 08:58:33;;;;;;;10.00;5.92;;;;;;;11.95;43.59;101371.46;1811997;79;21366;-79
2021/01/02 09:01:02;;;;;;;8.50;5.03;;;;;;;11.95;43.54;101365.25;1812757;79;21117;-80
2021/01/02 09:03:29;;;;;;;9.15;6.00;;;;;;;11.97;43.44;101366.78;1807154;79;21645;-79
2021/01/02 09:05:57;;;;;;;9.23;6.05;;;;;;;11.99;43.50;101371.99;1807872;79;21208;-78
2021/01/02 09:08:27;;;;;;;7.30;4.95;;;;;;;12.01;43.57;101373.56;1783128;80;21116;-79
2021/01/02 09:10:56;;;;;;;9.13;6.00;;;;;;;12.05;43.51;101375.46;1811220;79;21185;-78
2021/01/02 09:13:24;;;;;;;9.00;5.87;;;;;;;12.07;43.29;101375.65;1812120;78;21185;-78
2021/01/02 09:16:15;;;;;;;6.80;4.92;;;;;;;12.11;43.32;101382.92;1812393;79;21174;-77
2021/01/02 09:18:44;;;;;;;8.25;5.05;;;;;;;12.10;43.22;101382.09;1812922;78;21157;-78
2021/01/02 09:21:17;;;;;;;9.18;5.90;;;;;;;12.10;43.26;101378.55;1813291;79;21427;-78
2021/01/02 09:23:46;;;;;;;10.75;5.97;;;;;;;12.12;43.24;101381.42;1808795;79;21383;-78
2021/01/02 09:26:27;;;;;;;7.45;4.85;;;;;;;12.14;43.19;101381.30;1783850;79;21031;-77
2021/01/02 09:28:58;;;;;;;7.65;5.15;;;;;;;12.14;43.25;101390.70;1812323;79;21145;-79
2021/01/02 09:31:26;;;;;;;9.05;5.22;;;;;;;12.11;43.35;101386.95;1811957;79;21224;-79
2021/01/02 09:33:54;;;;;;;8.55;5.15;;;;;;;12.12;43.37;101391.33;1791407;79;21187;-76
2021/01/02 09:36:23;;;;;;;8.00;4.97;;;;;;;12.17;43.29;101393.95;1769275;80;22452;-79
2021/01/02 09:38:51;;;;;;;12.53;5.62;;;;;;;12.18;43.35;101389.42;1810983;79;21501;-80
2021/01/02 09:41:21;;;;;;;16.42;5.87;;;;;;;12.19;43.30;101391.95;1794261;79;21345;-78
2021/01/02 09:43:56;;;;;;;8.83;5.50;;;;;;;12.23;43.34;101397.05;1746860;80;21163;-77
2021/01/02 09:46:27;;;;;;;8.90;4.67;;;;;;;12.29;43.17;101392.42;1758569;80;21149;-78
2021/01/02 09:48:56;;;;;;;10.82;5.08;;;;;;;12.32;42.92;101401.53;1806905;79;21388;-78
2021/01/02 09:51:24;;;;;;;10.13;4.78;;;;;;;12.29;43.00;101399.13;1783394;80;21217;-78
2021/01/02 09:53:52;;;;;;;8.08;5.42;;;;;;;12.26;42.94;101403.45;1743841;80;21236;-77
2021/01/02 09:56:21;;;;;;;8.00;4.78;;;;;;;12.30;43.04;101398.13;1790005;79;21588;-77
2021/01/02 09:58:50;;;;;;;7.87;5.35;;;;;;;12.33;42.92;101398.70;1782431;80;21490;-77
2021/01/02 10:01:17;;;;;;;9.93;5.25;;;;;;;12.37;42.80;101404.13;1773086;80;21366;-77
2021/01/02 10:03:45;;;;;;;6.08;4.83;;;;;;;12.41;42.60;101406.03;1810937;79;21486;-78
2021/01/02 10:06:13;;;;;;;6.55;4.75;;;;;;;12.41;42.52;101404.19;1807559;78;21138;-78
2021/01/02 10:08:41;;;;;;;6.95;4.80;;;;;;;12.44;42.62;101405.72;1779649;80;21114;-79
2021/01/02 10:11:09;;;;;;;10.10;5.10;;;;;;;12.51;42.54;101406.83;1745854;82;21197;-80
2021/01/02 10:13:37;;;;;;;6.67;4.80;;;;;;;12.55;42.47;101410.92;1750908;81;21661;-78
2021/01/02 10:16:05;;;;;;;7.03;4.62;;;;;;;12.56;42.41;101405.89;1755697;80;21213;-77
2021/01/02 10:18:33;;;;;;;7.92;4.65;;;;;;;12.57;42.43;101404.89;1771739;80;21177;-77
2021/01/02 10:21:01;;;;;;;7.50;4.42;;;;;;;12.61;42.35;101408.13;1749161;80;21519;-79
2021/01/02 10:23:28;;;;;;;5.60;3.87;;;;;;;12.63;42.24;101400.28;1737424;82;21190;-78
2021/01/02 10:25:57;;;;;;;6.28;4.53;;;;;;;12.63;42.18;101410.19;1747918;81;21388;-79
2021/01/02 10:28:25;;;;;;;6.83;4.30;;;;;;;12.65;42.18;101400.97;1751407;81;21185;-79
2021/01/02 10:30:53;;;;;;;8.08;4.97;;;;;;;12.66;42.07;101404.00;1755220;81;21214;-78
2021/01/02 10:33:21;;;;;;;8.98;5.12;;;;;;;12.67;42.13;101403.03;1753687;80;21179;-77
2021/01/02 10:35:49;;;;;;;13.35;5.25;;;;;;;12.68;42.22;101409.25;1765290;80;21197;-80
2021/01/02 10:38:17;;;;;;;9.18;5.37;;;;;;;12.66;42.24;101408.03;1757094;79;21377;-78
2021/01/02 10:40:45;;;;;;;9.03;4.85;;;;;;;12.67;42.30;101412.44;1746932;81;21513;-79
2021/01/02 10:43:13;;;;;;;7.55;4.30;;;;;;;12.67;42.39;101415.59;1800902;79;21170;-78
2021/01/02 10:45:41;;;;;;;6.78;4.62;;;;;;;12.65;42.50;101412.22;1785327;79;21194;-80
2021/01/02 10:48:09;;;;;;;7.47;4.30;;;;;;;12.65;42.49;101410.88;1781011;79;21757;-81
2021/01/02 10:50:37;;;;;;;8.90;5.03;;;;;;;12.64;42.52;101414.06;1778900;80;21236;-81
2021/01/02 10:53:04;;;;;;;6.78;4.92;;;;;;;12.63;42.60;101408.34;1759785;80;21200;-79
2021/01/02 10:55:34;;;;;;;8.35;4.55;;;;;;;12.61;42.68;101422.91;1787800;79;21191;-78
2021/01/02 10:58:01;;;;;;;5.37;3.87;;;;;;;12.59;42.67;101420.89;1779162;79;21168;-81
2021/01/02 11:00:30;;;;;;;6.00;3.95;;;;;;;12.57;42.55;101416.98;1761518;80;21193;-80
2021/01/02 11:02:57;;;;;;;6.10;4.10;;;;;;;12.57;42.47;101418.33;1773655;80;21802;-79
2021/01/02 11:05:25;;;;;;;7.37;4.97;;;;;;;12.52;42.57;101416.58;1791261;79;21185;-79
2021/01/02 11:07:53;;;;;;;8.23;5.78;;;;;;;12.49;42.68;101416.90;1753058;80;21212;-80
2021/01/02 11:10:22;;;;;;;6.10;4.40;;;;;;;12.48;42.83;101422.39;1750935;81;21188;-78
2021/01/02 11:12:53;;;;;;;6.22;4.75;;;;;;;12.48;42.87;101425.92;1751540;80;21736;-78
2021/01/02 11:15:27;;;;;;;12.00;6.95;;;;;;;12.48;42.95;101427.27;1750700;80;21196;-80
2021/01/02 11:17:55;;;;;;;6.83;4.53;;;;;;;12.47;42.93;101430.95;1787475;79;22199;-80
2021/01/02 11:20:24;;;;;;;8.50;5.35;;;;;;;12.48;42.97;101435.33;1771809;79;21189;-80
2021/01/02 11:22:52;;;;;;;8.43;5.62;;;;;;;12.47;42.99;101433.65;1768966;81;21201;-80
2021/01/02 11:25:20;;;;;;;7.50;5.58;;;;;;;12.47;42.97;101434.98;1776151;79;21161;-79
2021/01/02 11:27:48;;;;;;;6.92;4.35;;;;;;;12.45;43.15;101435.65;1751133;80;21335;-78
2021/01/02 11:30:18;;;;;;;5.87;4.40;;;;;;;12.46;43.10;101439.18;1777792;80;21185;-80
2021/01/02 11:32:48;;;;;;;9.55;4.83;;;;;;;12.47;43.16;101443.05;1755440;80;21189;-81
2021/01/02 11:35:16;;;;;;;6.60;4.83;;;;;;;12.43;43.29;101442.48;1759303;80;21200;-79
2021/01/02 11:37:45;;;;;;;7.85;4.53;;;;;;;12.45;43.35;101450.42;1782869;80;21185;-80
2021/01/02 11:40:16;;;;;;;6.65;4.30;;;;;;;12.46;43.41;101450.77;1791953;79;21360;-79
2021/01/02 11:42:44;;;;;;;9.08;4.83;;;;;;;12.42;43.32;101454.73;1784161;79;21505;-79
2021/01/02 11:45:16;;;;;;;11.35;4.37;;;;;;;12.42;43.35;101452.89;1741809;80;21193;-80
2021/01/02 11:47:44;;;;;;;6.37;4.60;;;;;;;12.43;43.37;101454.58;1777975;80;21161;-78
2021/01/02 11:50:13;;;;;;;8.33;4.97;;;;;;;12.45;43.40;101451.77;1768949;80;21165;-78